Latest Coastal Weather Observations for Low Head

IDV60701

Issued at 3:11 am EST Thursday 2 July 2015 (issued every 10 minutes, with the page automatically refreshed every 10 minutes)

About coastal observations | Map of coastal stations | Coastal observations for VIC | Marine services | Other Formats
Station Details ID: 091293 Name: LOW HEAD Lat: -41.05 Lon: 146.79 Height: 3.0 m
Data from the previous 72 hours. | See also: Recent months at Low Head
Date/Time
EST
Temp

°C
Wind Pressure Rain
since 9am
mm
Weather Cloud Vis
km
Sea
Height
m
Swell
Dir
 
Speed
knots
Gust
knots
hPa Trend Height
m
Period
s
Dir
02/03:00am 10.2 WSW 25 30 1010.3 - 1.2 - - - - - - -
02/02:30am 10.3 W 25 30 1010.2 - 1.2 - - - - - - -
02/02:00am 10.5 WSW 25 31 1010.1 - 1.2 - - - - - - -
02/01:30am 10.7 WSW 25 33 1009.6 - 1.2 - - - - - - -
02/01:00am 11.2 W 28 38 1009.6 - 1.2 - - - - - - -
02/12:54am 11.3 W 27 38 1009.5 - 1.2 - - - - - - -
02/12:30am 11.3 W 27 32 1009.4 - 1.2 - - - - - - -
02/12:00am 11.5 W 27 32 1009.5 - 1.2 - - - - - - -
 
Date/Time
EST
Temp

°C
Wind Pressure Rain
since 9am
mm
Weather Cloud Vis
km
Sea
Height
m
Swell
Dir
 
Speed
knots
Gust
knots
hPa Trend Height
m
Period
s
Dir
01/11:30pm 11.3 W 25 30 1009.4 - 1.2 - - - - - - -
01/11:00pm 11.5 WNW 24 29 1009.7 - 1.2 - - - - - - -
01/10:30pm 11.3 WNW 25 29 1009.4 - 1.2 - - - - - - -
01/10:00pm 11.4 W 30 35 1009.8 - 1.2 - - - - - - -
01/09:46pm 12.0 WNW 29 37 1009.6 - 1.2 - - - - - - -
01/09:30pm 12.7 NW 32 43 1009.7 - 0.8 - - - - - - -
01/09:28pm 12.9 NW 31 41 1009.7 - 0.8 - - - - - - -
01/09:00pm 13.0 NW 30 38 1010.3 - 0.6 - - - - - - -
01/08:34pm 12.9 NW 27 37 1010.7 - 0.6 - - - - - - -
01/08:30pm 12.8 NW 27 34 1010.7 - 0.6 - - - - - - -
01/08:00pm 12.5 NW 25 30 1011.3 - 0.6 - - - - - - -
01/07:30pm 12.4 NW 30 36 1012.0 - 0.6 - - - - - - -
01/07:00pm 12.4 NW 31 37 1012.6 - 0.6 - - - - - - -
01/06:30pm 12.0 WNW 28 35 1012.9 - 0.6 - - - - - - -
01/06:00pm 11.6 WNW 28 34 1013.5 - 0.6 Recent precip. - - - - - -
01/05:34pm 12.0 WNW 28 38 1013.9 - 0.2 - - - - - - -
01/05:30pm 12.4 WNW 28 34 1013.9 - 0.0 - - - - - - -
01/05:00pm 12.1 NW 27 33 1014.2 - 0.0 - - - - - - -
01/04:30pm 12.3 NW 25 30 1014.6 - 0.0 - - - - - - -
01/04:00pm 12.2 NW 26 31 1015.4 - 0.0 - - - - - - -
01/03:30pm 12.9 NW 26 31 1015.8 - 0.0 - - - - - - -
01/03:00pm 12.9 NW 24 28 1016.0 - 0.0 - - - - - - -
01/02:30pm 13.1 NW 22 27 1016.3 - 0.0 - - - - - - -
01/02:00pm 12.8 WNW 24 29 1017.0 - 0.0 - - - - - - -
01/01:30pm 12.8 WNW 23 26 1017.7 - 0.0 - - - - - - -
01/01:00pm 13.0 WNW 23 26 1018.3 - 0.0 - - - - - - -
01/12:30pm 12.8 WNW 22 27 1019.0 - 0.0 - - - - - - -
01/12:00pm 12.5 WNW 19 23 1019.8 - 0.0 - - - - - - -
01/11:30am 12.0 WNW 18 22 1020.5 - 0.0 - - - - - - -
01/11:00am 11.4 WNW 18 21 1021.1 - 0.0 - - - - - - -
01/10:30am 10.8 WNW 17 21 1021.5 - 0.0 - - - - - - -
01/10:09am 9.7 WSW 7 16 1021.8 - 0.0 - - - - - - -
01/10:00am 8.4 W 1 5 1021.8 - 0.0 - - - - - - -
01/09:30am 7.0 SSE 3 7 1022.1 - 0.0 - - - - - - -
01/09:00am 5.9 S 5 7 1022.4 - 0.2 - - - - - - -
01/08:30am 3.8 S 7 8 1022.7 - 0.2 - - - - - - -
01/08:00am 4.0 SSE 8 9 1022.6 - 0.2 - - - - - - -
01/07:30am 3.7 SSE 7 9 1022.7 - 0.2 - - - - - - -
01/07:00am 3.5 SSE 9 11 1022.7 - 0.2 - - - - - - -
01/06:30am 3.6 SSE 9 10 1023.1 - 0.2 - - - - - - -
01/06:00am 3.5 SSE 9 10 1023.3 - 0.2 Recent precip. - - - - - -
01/05:30am 4.3 S 10 12 1023.3 - 0.0 - - - - - - -
01/05:00am 4.3 S 10 12 1023.3 - 0.0 - - - - - - -
01/04:30am 4.3 S 10 12 1023.4 - 0.0 - - - - - - -
01/04:00am 4.2 SSE 9 11 1023.6 - 0.0 - - - - - - -
01/03:30am 4.4 SSE 10 12 1023.7 - 0.0 - - - - - - -
01/03:00am 4.6 S 11 14 1024.0 - 0.0 - - - - - - -
01/02:30am 4.5 S 13 15 1024.1 - 0.0 - - - - - - -
01/02:00am 4.2 S 12 14 1024.1 - 0.0 - - - - - - -
01/01:30am 5.2 S 12 14 1024.1 - 0.0 - - - - - - -
01/01:00am 5.2 S 11 13 1024.1 - 0.0 - - - - - - -
01/12:30am 4.8 SSE 10 12 1024.5 - 0.0 - - - - - - -
01/12:00am 5.4 S 11 13 1024.6 - 0.0 - - - - - - -
 
Date/Time
EST
Temp

°C
Wind Pressure Rain
since 9am
mm
Weather Cloud Vis
km
Sea
Height
m
Swell
Dir
 
Speed
knots
Gust
knots
hPa Trend Height
m
Period
s
Dir
30/11:30pm 5.2 SSE 10 12 1024.8 - 0.0 - - - - - - -
30/11:00pm 5.2 S 12 14 1024.8 - 0.0 - - - - - - -
30/10:30pm 5.1 SSE 12 14 1024.6 - 0.0 - - - - - - -
30/10:00pm 5.6 S 13 15 1024.6 - 0.0 - - - - - - -
30/09:30pm 5.9 SSE 13 15 1024.6 - 0.0 - - - - - - -
30/09:00pm 5.8 SSE 11 13 1024.5 - 0.0 - - - - - - -
30/08:30pm 6.0 S 12 14 1024.6 - 0.0 - - - - - - -
30/08:00pm 6.5 S 12 14 1024.6 - 0.0 - - - - - - -
30/07:30pm 6.2 SSE 11 13 1024.5 - 0.0 - - - - - - -
30/07:00pm 6.8 S 12 14 1024.4 - 0.0 - - - - - - -
30/06:30pm 7.3 S 7 10 1024.0 - 0.0 - - - - - - -
30/06:00pm 9.4 SSW 7 11 1024.0 - 0.0 - - - - - - -
30/05:30pm 9.7 SSW 6 10 1023.9 - 0.0 - - - - - - -
30/05:00pm 8.8 S 5 9 1023.8 - 0.0 - - - - - - -
30/04:30pm 8.7 S 6 7 1023.9 - 0.0 - - - - - - -
30/04:00pm 9.4 S 4 6 1023.7 - 0.0 - - - - - - -
30/03:30pm 9.1 S 7 8 1023.8 - 0.0 - - - - - - -
30/03:00pm 8.6 S 6 7 1023.7 - 0.0 - - - - - - -
30/02:30pm 8.4 S 6 7 1023.9 - 0.0 - - - - - - -
30/02:00pm 7.9 S 7 8 1024.1 - 0.0 - - - - - - -
30/01:30pm 8.0 S 7 9 1024.4 - 0.0 - - - - - - -
30/01:00pm 7.9 S 7 9 1024.5 - 0.0 - - - - - - -
30/12:30pm 7.6 S 8 9 1024.8 - 0.0 - - - - - - -
30/12:00pm 7.2 S 9 11 1025.2 - 0.0 - - - - - - -
30/11:30am 7.0 S 9 11 1025.9 - 0.0 - - - - - - -
30/11:00am 6.4 S 9 11 1026.2 - 0.0 - - - - - - -
30/10:30am 6.1 SSE 9 11 1026.4 - 0.0 - - - - - - -
30/10:00am 5.8 S 10 11 1026.6 - 0.0 - - - - - - -
30/09:30am 5.3 SSE 8 10 1026.4 - 0.0 - - - - - - -
30/09:00am 4.9 SSE 8 10 1026.4 - 0.0 - - - - - - -
30/08:30am 5.1 S 10 12 1026.2 - 0.0 - - - - - - -
30/08:00am 5.4 S 10 12 1025.9 - 0.0 - - - - - - -
30/07:30am 4.9 S 11 13 1025.8 - 0.0 - - - - - - -
30/07:00am 4.6 S 10 12 1025.6 - 0.0 - - - - - - -
30/06:30am 4.3 SSE 8 10 1025.4 - 0.0 - - - - - - -
30/06:00am 4.4 S 8 8 1025.3 - 0.0 - - - - - - -
30/05:30am 6.1 S 8 9 1025.1 - 0.0 - - - - - - -
30/05:00am 8.2 SW 7 9 1025.0 - 0.0 - - - - - - -
30/04:30am 9.0 WSW 10 13 1025.1 - 0.0 - - - - - - -
30/04:00am 9.1 WSW 11 14 1025.4 - 0.0 - - - - - - -
30/03:30am 9.0 WSW 10 11 1025.6 - 0.0 - - - - - - -
30/03:00am 9.6 W 12 14 1025.6 - 0.0 - - - - - - -
30/02:30am 9.6 WSW 10 12 1025.8 - 0.0 - - - - - - -
30/02:00am 10.5 W 16 19 1025.7 - 0.0 - - - - - - -
30/01:30am 10.7 W 17 20 1025.8 - 0.0 - - - - - - -
30/01:00am 10.9 W 17 21 1026.0 - 0.0 - - - - - - -
30/12:30am 10.9 W 17 20 1026.2 - 0.0 - - - - - - -
30/12:00am 10.9 W 17 19 1026.5 - 0.0 - - - - - - -
 
Date/Time
EST
Temp

°C
Wind Pressure Rain
since 9am
mm
Weather Cloud Vis
km
Sea
Height
m
Swell
Dir
 
Speed
knots
Gust
knots
hPa Trend Height
m
Period
s
Dir
29/11:30pm 11.1 W 18 21 1026.4 - 0.0 - - - - - - -
29/11:00pm 11.2 W 17 20 1026.4 - 0.0 - - - - - - -
29/10:30pm 11.3 W 18 21 1026.4 - 0.0 - - - - - - -
29/10:00pm 11.4 WNW 19 22 1026.7 - 0.0 - - - - - - -
29/09:30pm 11.5 WNW 17 20 1026.9 - 0.0 - - - - - - -
29/09:00pm 11.7 WNW 17 19 1026.9 - 0.0 - - - - - - -
29/08:30pm 11.9 WNW 16 19 1027.0 - 0.0 - - - - - - -
29/08:00pm 12.1 WNW 17 21 1027.1 - 0.0 - - - - - - -
29/07:30pm 12.3 WNW 19 22 1027.1 - 0.0 - - - - - - -
29/07:00pm 12.4 WNW 20 24 1026.9 - 0.0 - - - - - - -
29/06:30pm 12.5 WNW 20 23 1026.8 - 0.0 - - - - - - -
29/06:00pm 12.5 WNW 19 23 1026.6 - 0.0 - - - - - - -
29/05:30pm 12.6 WNW 19 23 1026.6 - 0.0 - - - - - - -
29/05:00pm 12.6 WNW 19 22 1026.6 - 0.0 - - - - - - -
29/04:30pm 12.8 NW 20 24 1026.7 - 0.0 - - - - - - -
29/04:00pm 13.1 NW 20 24 1026.8 - 0.0 - - - - - - -
29/03:30pm 13.2 WNW 19 23 1026.9 - 0.0 - - - - - - -
29/03:00pm 13.3 WNW 21 24 1026.9 - 0.0 - - - - - - -
29/02:30pm 13.3 WNW 20 24 1027.0 - 0.0 - - - - - - -
29/02:00pm 13.4 NW 19 23 1027.1 - 0.0 - - - - - - -
29/01:30pm 13.5 WNW 17 20 1027.2 - 0.0 - - - - - - -
29/01:00pm 13.1 WNW 17 20 1027.5 - 0.0 - - - - - - -
29/12:30pm 13.0 WNW 18 20 1027.9 - 0.0 - - - - - - -
29/12:00pm 12.8 WNW 18 21 1028.3 - 0.0 - - - - - - -
29/11:30am 12.7 WNW 19 22 1028.7 - 0.0 - - - - - - -
29/11:00am 12.6 WNW 19 22 1028.9 - 0.0 - - - - - - -
29/10:30am 12.6 WNW 20 22 1029.1 - 0.0 - - - - - - -
29/10:00am 12.5 WNW 19 22 1029.2 - 0.0 - - - - - - -
29/09:30am 12.3 WNW 20 23 1029.3 - 0.0 - - - - - - -
29/09:00am 11.9 WNW 20 22 1029.2 - 0.0 - - - - - - -
29/08:30am 11.9 WNW 18 21 1028.9 - 0.0 - - - - - - -
29/08:00am 11.6 WNW 20 23 1028.9 - 0.0 - - - - - - -
29/07:30am 11.7 WNW 19 22 1028.7 - 0.0 - - - - - - -
29/07:00am 11.6 WNW 19 22 1028.7 - 0.0 - - - - - - -
29/06:30am 11.7 WNW 19 22 1028.4 - 0.0 - - - - - - -
29/06:00am 11.7 WNW 19 22 1028.2 - 0.0 - - - - - - -
29/05:30am 11.7 WNW 18 21 1028.1 - 0.0 - - - - - - -
29/05:00am 11.7 WNW 18 22 1027.8 - 0.0 - - - - - - -
29/04:30am 11.7 W 19 21 1027.8 - 0.0 - - - - - - -
29/04:00am 11.5 WNW 19 22 1027.8 - 0.0 - - - - - - -
29/03:30am 11.6 WNW 18 22 1027.9 - 0.0 - - - - - - -

Other Formats:

Comma delimited format used in spreadsheet applications
http://www.bom.gov.au/fwo/IDV60701/IDV60701.95964.axf

JavaScript Object Notation format (JSON) in row-major order
http://www.bom.gov.au/fwo/IDV60701/IDV60701.95964.json